sensor_id;sensor_type;location;lat;lon;timestamp;P1;durP1;ratioP1;P2;durP2;ratioP2
3943;SDS011;1986;52.546;13.428;2023-07-29T00:01:30;0.70;;;0.70;;
3943;SDS011;1986;52.546;13.428;2023-07-29T00:03:58;0.67;;;0.67;;
3943;SDS011;1986;52.546;13.428;2023-07-29T00:06:25;0.60;;;0.60;;
3943;SDS011;1986;52.546;13.428;2023-07-29T00:08:52;0.60;;;0.60;;
3943;SDS011;1986;52.546;13.428;2023-07-29T00:11:19;0.70;;;0.70;;
3943;SDS011;1986;52.546;13.428;2023-07-29T00:13:46;0.53;;;0.53;;
3943;SDS011;1986;52.546;13.428;2023-07-29T00:16:15;0.60;;;0.60;;
3943;SDS011;1986;52.546;13.428;2023-07-29T00:18:42;0.50;;;0.50;;
3943;SDS011;1986;52.546;13.428;2023-07-29T00:21:10;0.50;;;0.50;;
3943;SDS011;1986;52.546;13.428;2023-07-29T00:23:37;0.50;;;0.50;;
3943;SDS011;1986;52.546;13.428;2023-07-29T00:26:04;0.50;;;0.50;;
3943;SDS011;1986;52.546;13.428;2023-07-29T00:28:31;0.50;;;0.50;;
3943;SDS011;1986;52.546;13.428;2023-07-29T00:30:58;0.40;;;0.40;;
3943;SDS011;1986;52.546;13.428;2023-07-29T00:33:25;0.50;;;0.50;;
3943;SDS011;1986;52.546;13.428;2023-07-29T00:35:52;0.40;;;0.40;;
3943;SDS011;1986;52.546;13.428;2023-07-29T00:38:20;0.50;;;0.50;;
3943;SDS011;1986;52.546;13.428;2023-07-29T00:40:47;0.40;;;0.40;;
3943;SDS011;1986;52.546;13.428;2023-07-29T00:43:15;0.40;;;0.40;;
3943;SDS011;1986;52.546;13.428;2023-07-29T00:45:44;0.40;;;0.40;;
3943;SDS011;1986;52.546;13.428;2023-07-29T00:48:11;0.40;;;0.40;;
3943;SDS011;1986;52.546;13.428;2023-07-29T00:50:38;0.40;;;0.40;;
3943;SDS011;1986;52.546;13.428;2023-07-29T00:53:06;0.40;;;0.40;;
3943;SDS011;1986;52.546;13.428;2023-07-29T00:55:37;0.43;;;0.43;;
3943;SDS011;1986;52.546;13.428;2023-07-29T00:58:04;0.50;;;0.50;;
3943;SDS011;1986;52.546;13.428;2023-07-29T01:00:31;0.40;;;0.40;;
3943;SDS011;1986;52.546;13.428;2023-07-29T01:02:58;0.40;;;0.40;;
3943;SDS011;1986;52.546;13.428;2023-07-29T01:05:25;0.40;;;0.40;;
3943;SDS011;1986;52.546;13.428;2023-07-29T01:07:59;0.40;;;0.37;;
3943;SDS011;1986;52.546;13.428;2023-07-29T01:10:34;0.40;;;0.40;;
3943;SDS011;1986;52.546;13.428;2023-07-29T01:13:13;0.40;;;0.40;;
3943;SDS011;1986;52.546;13.428;2023-07-29T01:15:45;0.40;;;0.40;;
3943;SDS011;1986;52.546;13.428;2023-07-29T01:18:23;1.03;;;1.03;;
3943;SDS011;1986;52.546;13.428;2023-07-29T01:20:53;0.30;;;0.30;;
3943;SDS011;1986;52.546;13.428;2023-07-29T01:23:26;2.70;;;2.60;;
3943;SDS011;1986;52.546;13.428;2023-07-29T01:25:56;0.37;;;0.37;;
3943;SDS011;1986;52.546;13.428;2023-07-29T01:28:25;0.30;;;0.30;;
3943;SDS011;1986;52.546;13.428;2023-07-29T01:30:56;0.40;;;0.40;;
3943;SDS011;1986;52.546;13.428;2023-07-29T01:33:35;0.30;;;0.30;;
3943;SDS011;1986;52.546;13.428;2023-07-29T01:36:07;0.40;;;0.40;;
3943;SDS011;1986;52.546;13.428;2023-07-29T01:38:40;0.30;;;0.30;;
3943;SDS011;1986;52.546;13.428;2023-07-29T01:41:09;0.30;;;0.30;;
3943;SDS011;1986;52.546;13.428;2023-07-29T01:43:37;0.43;;;0.43;;
3943;SDS011;1986;52.546;13.428;2023-07-29T01:46:09;1.37;;;1.27;;
3943;SDS011;1986;52.546;13.428;2023-07-29T01:48:36;0.30;;;0.30;;
3943;SDS011;1986;52.546;13.428;2023-07-29T01:51:03;0.30;;;0.30;;
3943;SDS011;1986;52.546;13.428;2023-07-29T01:53:31;0.30;;;0.30;;
3943;SDS011;1986;52.546;13.428;2023-07-29T01:55:59;0.30;;;0.30;;
3943;SDS011;1986;52.546;13.428;2023-07-29T01:58:26;0.30;;;0.30;;
3943;SDS011;1986;52.546;13.428;2023-07-29T02:00:53;0.30;;;0.30;;
3943;SDS011;1986;52.546;13.428;2023-07-29T02:03:20;0.30;;;0.30;;
3943;SDS011;1986;52.546;13.428;2023-07-29T02:05:50;0.30;;;0.30;;
3943;SDS011;1986;52.546;13.428;2023-07-29T02:08:17;0.30;;;0.30;;
3943;SDS011;1986;52.546;13.428;2023-07-29T02:10:43;0.30;;;0.30;;
3943;SDS011;1986;52.546;13.428;2023-07-29T02:13:12;0.30;;;0.30;;
3943;SDS011;1986;52.546;13.428;2023-07-29T02:15:39;0.30;;;0.30;;
3943;SDS011;1986;52.546;13.428;2023-07-29T02:18:06;0.30;;;0.30;;
3943;SDS011;1986;52.546;13.428;2023-07-29T02:20:33;0.80;;;0.80;;
3943;SDS011;1986;52.546;13.428;2023-07-29T02:23:00;0.30;;;0.30;;
3943;SDS011;1986;52.546;13.428;2023-07-29T02:25:26;0.30;;;0.30;;
3943;SDS011;1986;52.546;13.428;2023-07-29T02:27:53;0.30;;;0.30;;
3943;SDS011;1986;52.546;13.428;2023-07-29T02:30:22;0.30;;;0.30;;
3943;SDS011;1986;52.546;13.428;2023-07-29T02:32:48;1.23;;;1.13;;
3943;SDS011;1986;52.546;13.428;2023-07-29T02:35:15;1.37;;;1.37;;
3943;SDS011;1986;52.546;13.428;2023-07-29T02:37:42;0.30;;;0.30;;
3943;SDS011;1986;52.546;13.428;2023-07-29T02:40:10;2.53;;;0.67;;
3943;SDS011;1986;52.546;13.428;2023-07-29T02:42:37;0.30;;;0.30;;
3943;SDS011;1986;52.546;13.428;2023-07-29T02:45:05;0.80;;;0.80;;
3943;SDS011;1986;52.546;13.428;2023-07-29T02:47:36;0.30;;;0.30;;
3943;SDS011;1986;52.546;13.428;2023-07-29T02:50:03;0.30;;;0.30;;
3943;SDS011;1986;52.546;13.428;2023-07-29T02:52:30;0.30;;;0.30;;
3943;SDS011;1986;52.546;13.428;2023-07-29T02:54:57;0.40;;;0.40;;
3943;SDS011;1986;52.546;13.428;2023-07-29T02:57:24;0.30;;;0.30;;
3943;SDS011;1986;52.546;13.428;2023-07-29T02:59:51;0.30;;;0.30;;
3943;SDS011;1986;52.546;13.428;2023-07-29T03:02:18;0.30;;;0.30;;
3943;SDS011;1986;52.546;13.428;2023-07-29T03:04:48;0.30;;;0.30;;
3943;SDS011;1986;52.546;13.428;2023-07-29T03:07:15;0.40;;;0.40;;
3943;SDS011;1986;52.546;13.428;2023-07-29T03:09:42;0.30;;;0.30;;
3943;SDS011;1986;52.546;13.428;2023-07-29T03:12:10;0.50;;;0.50;;
3943;SDS011;1986;52.546;13.428;2023-07-29T03:14:37;4.13;;;0.60;;
3943;SDS011;1986;52.546;13.428;2023-07-29T03:17:04;0.30;;;0.30;;
3943;SDS011;1986;52.546;13.428;2023-07-29T03:19:31;0.47;;;0.47;;
3943;SDS011;1986;52.546;13.428;2023-07-29T03:22:00;1.70;;;1.63;;
3943;SDS011;1986;52.546;13.428;2023-07-29T03:24:27;0.30;;;0.30;;
3943;SDS011;1986;52.546;13.428;2023-07-29T03:26:54;0.30;;;0.30;;
3943;SDS011;1986;52.546;13.428;2023-07-29T03:29:21;0.30;;;0.30;;
3943;SDS011;1986;52.546;13.428;2023-07-29T03:31:48;0.43;;;0.43;;
3943;SDS011;1986;52.546;13.428;2023-07-29T03:34:15;0.40;;;0.40;;
3943;SDS011;1986;52.546;13.428;2023-07-29T03:36:42;0.30;;;0.30;;
3943;SDS011;1986;52.546;13.428;2023-07-29T03:39:12;0.80;;;0.80;;
3943;SDS011;1986;52.546;13.428;2023-07-29T03:41:40;0.40;;;0.40;;
3943;SDS011;1986;52.546;13.428;2023-07-29T03:44:06;0.40;;;0.40;;
3943;SDS011;1986;52.546;13.428;2023-07-29T03:46:33;0.97;;;0.97;;
3943;SDS011;1986;52.546;13.428;2023-07-29T03:49:00;0.30;;;0.30;;
3943;SDS011;1986;52.546;13.428;2023-07-29T03:51:28;0.30;;;0.30;;
3943;SDS011;1986;52.546;13.428;2023-07-29T03:53:55;2.30;;;2.10;;
3943;SDS011;1986;52.546;13.428;2023-07-29T03:56:23;0.30;;;0.30;;
3943;SDS011;1986;52.546;13.428;2023-07-29T03:58:50;0.43;;;0.43;;
3943;SDS011;1986;52.546;13.428;2023-07-29T04:01:18;0.30;;;0.30;;
3943;SDS011;1986;52.546;13.428;2023-07-29T04:03:45;0.30;;;0.30;;
3943;SDS011;1986;52.546;13.428;2023-07-29T04:06:12;0.57;;;0.57;;
3943;SDS011;1986;52.546;13.428;2023-07-29T04:08:39;2.50;;;0.90;;
3943;SDS011;1986;52.546;13.428;2023-07-29T04:11:07;0.70;;;0.70;;
3943;SDS011;1986;52.546;13.428;2023-07-29T04:13:35;0.30;;;0.30;;
3943;SDS011;1986;52.546;13.428;2023-07-29T04:16:02;0.50;;;0.50;;
3943;SDS011;1986;52.546;13.428;2023-07-29T04:18:30;0.40;;;0.40;;
3943;SDS011;1986;52.546;13.428;2023-07-29T04:20:56;0.30;;;0.30;;
3943;SDS011;1986;52.546;13.428;2023-07-29T04:23:23;2.90;;;0.60;;
3943;SDS011;1986;52.546;13.428;2023-07-29T04:25:50;0.80;;;0.80;;
3943;SDS011;1986;52.546;13.428;2023-07-29T04:28:18;2.00;;;1.70;;
3943;SDS011;1986;52.546;13.428;2023-07-29T04:30:47;0.73;;;0.73;;
3943;SDS011;1986;52.546;13.428;2023-07-29T04:33:14;0.40;;;0.40;;
3943;SDS011;1986;52.546;13.428;2023-07-29T04:35:40;3.07;;;2.87;;
3943;SDS011;1986;52.546;13.428;2023-07-29T04:38:07;0.30;;;0.30;;
3943;SDS011;1986;52.546;13.428;2023-07-29T04:40:34;0.30;;;0.30;;
3943;SDS011;1986;52.546;13.428;2023-07-29T04:43:01;1.63;;;0.60;;
3943;SDS011;1986;52.546;13.428;2023-07-29T04:45:28;0.30;;;0.30;;
3943;SDS011;1986;52.546;13.428;2023-07-29T04:47:57;0.40;;;0.40;;
3943;SDS011;1986;52.546;13.428;2023-07-29T04:50:25;1.90;;;1.07;;
3943;SDS011;1986;52.546;13.428;2023-07-29T04:52:51;0.30;;;0.30;;
3943;SDS011;1986;52.546;13.428;2023-07-29T04:55:19;0.80;;;0.80;;
3943;SDS011;1986;52.546;13.428;2023-07-29T04:57:46;0.40;;;0.40;;
3943;SDS011;1986;52.546;13.428;2023-07-29T05:00:13;0.40;;;0.40;;
3943;SDS011;1986;52.546;13.428;2023-07-29T05:02:40;1.60;;;0.90;;
3943;SDS011;1986;52.546;13.428;2023-07-29T05:05:09;0.50;;;0.50;;
3943;SDS011;1986;52.546;13.428;2023-07-29T05:07:36;1.00;;;1.00;;
3943;SDS011;1986;52.546;13.428;2023-07-29T05:10:03;0.90;;;0.90;;
3943;SDS011;1986;52.546;13.428;2023-07-29T05:12:31;0.70;;;0.70;;
3943;SDS011;1986;52.546;13.428;2023-07-29T05:14:58;1.00;;;1.00;;
3943;SDS011;1986;52.546;13.428;2023-07-29T05:17:25;1.20;;;1.10;;
3943;SDS011;1986;52.546;13.428;2023-07-29T05:19:52;1.80;;;1.80;;
3943;SDS011;1986;52.546;13.428;2023-07-29T05:22:20;2.10;;;2.10;;
3943;SDS011;1986;52.546;13.428;2023-07-29T05:24:47;2.50;;;2.50;;
3943;SDS011;1986;52.546;13.428;2023-07-29T05:27:14;5.77;;;5.23;;
3943;SDS011;1986;52.546;13.428;2023-07-29T05:29:41;4.10;;;4.10;;
3943;SDS011;1986;52.546;13.428;2023-07-29T05:32:08;6.10;;;6.00;;
3943;SDS011;1986;52.546;13.428;2023-07-29T05:34:35;6.73;;;6.53;;
3943;SDS011;1986;52.546;13.428;2023-07-29T05:37:02;7.23;;;7.07;;
3943;SDS011;1986;52.546;13.428;2023-07-29T05:39:30;6.30;;;6.20;;
3943;SDS011;1986;52.546;13.428;2023-07-29T05:42:01;7.50;;;7.40;;
3943;SDS011;1986;52.546;13.428;2023-07-29T05:44:28;7.80;;;7.70;;
3943;SDS011;1986;52.546;13.428;2023-07-29T05:46:55;8.80;;;8.60;;
3943;SDS011;1986;52.546;13.428;2023-07-29T05:49:23;10.67;;;10.37;;
3943;SDS011;1986;52.546;13.428;2023-07-29T05:51:50;15.03;;;14.03;;
3943;SDS011;1986;52.546;13.428;2023-07-29T05:54:18;10.80;;;10.50;;
3943;SDS011;1986;52.546;13.428;2023-07-29T05:56:47;10.73;;;10.43;;
3943;SDS011;1986;52.546;13.428;2023-07-29T05:59:14;11.60;;;11.30;;
3943;SDS011;1986;52.546;13.428;2023-07-29T06:01:41;11.10;;;10.80;;
3943;SDS011;1986;52.546;13.428;2023-07-29T06:04:07;13.87;;;13.27;;
3943;SDS011;1986;52.546;13.428;2023-07-29T06:06:34;12.97;;;12.57;;
3943;SDS011;1986;52.546;13.428;2023-07-29T06:09:01;12.90;;;12.50;;
3943;SDS011;1986;52.546;13.428;2023-07-29T06:11:29;15.53;;;14.63;;
3943;SDS011;1986;52.546;13.428;2023-07-29T06:13:57;14.57;;;14.03;;
3943;SDS011;1986;52.546;13.428;2023-07-29T06:16:25;15.53;;;14.77;;
3943;SDS011;1986;52.546;13.428;2023-07-29T06:18:52;15.40;;;14.53;;
3943;SDS011;1986;52.546;13.428;2023-07-29T06:21:19;14.77;;;14.03;;
3943;SDS011;1986;52.546;13.428;2023-07-29T06:23:46;15.97;;;15.20;;
3943;SDS011;1986;52.546;13.428;2023-07-29T06:26:16;16.63;;;15.93;;
3943;SDS011;1986;52.546;13.428;2023-07-29T06:28:43;16.37;;;15.67;;
3943;SDS011;1986;52.546;13.428;2023-07-29T06:31:13;16.60;;;15.87;;
3943;SDS011;1986;52.546;13.428;2023-07-29T06:33:40;16.87;;;16.17;;
3943;SDS011;1986;52.546;13.428;2023-07-29T06:36:07;16.93;;;16.20;;
3943;SDS011;1986;52.546;13.428;2023-07-29T06:38:34;18.10;;;17.30;;
3943;SDS011;1986;52.546;13.428;2023-07-29T06:41:03;18.87;;;17.97;;
3943;SDS011;1986;52.546;13.428;2023-07-29T06:43:30;17.30;;;16.50;;
3943;SDS011;1986;52.546;13.428;2023-07-29T06:45:57;21.17;;;19.93;;
3943;SDS011;1986;52.546;13.428;2023-07-29T06:48:26;19.80;;;18.60;;
3943;SDS011;1986;52.546;13.428;2023-07-29T06:50:53;19.50;;;18.50;;
3943;SDS011;1986;52.546;13.428;2023-07-29T06:53:20;20.13;;;18.83;;
3943;SDS011;1986;52.546;13.428;2023-07-29T06:55:47;17.80;;;17.00;;
3943;SDS011;1986;52.546;13.428;2023-07-29T06:58:14;18.73;;;17.83;;
3943;SDS011;1986;52.546;13.428;2023-07-29T07:00:41;18.13;;;17.33;;
3943;SDS011;1986;52.546;13.428;2023-07-29T07:03:08;44.90;;;19.83;;
3943;SDS011;1986;52.546;13.428;2023-07-29T07:05:37;18.97;;;17.90;;
3943;SDS011;1986;52.546;13.428;2023-07-29T07:08:04;18.07;;;17.27;;
3943;SDS011;1986;52.546;13.428;2023-07-29T07:10:31;19.80;;;18.60;;
3943;SDS011;1986;52.546;13.428;2023-07-29T07:13:00;21.80;;;20.23;;
3943;SDS011;1986;52.546;13.428;2023-07-29T07:15:33;19.37;;;18.47;;
3943;SDS011;1986;52.546;13.428;2023-07-29T07:18:00;19.37;;;18.40;;
3943;SDS011;1986;52.546;13.428;2023-07-29T07:20:27;18.57;;;17.67;;
3943;SDS011;1986;52.546;13.428;2023-07-29T07:22:55;18.83;;;17.80;;
3943;SDS011;1986;52.546;13.428;2023-07-29T07:25:22;19.50;;;18.50;;
3943;SDS011;1986;52.546;13.428;2023-07-29T07:27:49;18.37;;;17.47;;
3943;SDS011;1986;52.546;13.428;2023-07-29T07:30:16;20.10;;;18.90;;
3943;SDS011;1986;52.546;13.428;2023-07-29T07:32:43;21.03;;;19.77;;
3943;SDS011;1986;52.546;13.428;2023-07-29T07:35:10;18.73;;;17.83;;
3943;SDS011;1986;52.546;13.428;2023-07-29T07:37:37;18.30;;;17.40;;
3943;SDS011;1986;52.546;13.428;2023-07-29T07:40:06;20.63;;;19.33;;
3943;SDS011;1986;52.546;13.428;2023-07-29T07:42:34;19.57;;;18.47;;
3943;SDS011;1986;52.546;13.428;2023-07-29T07:45:01;18.77;;;17.87;;
3943;SDS011;1986;52.546;13.428;2023-07-29T07:47:30;20.63;;;19.53;;
3943;SDS011;1986;52.546;13.428;2023-07-29T07:49:57;18.77;;;17.77;;
3943;SDS011;1986;52.546;13.428;2023-07-29T07:52:27;19.57;;;18.57;;
3943;SDS011;1986;52.546;13.428;2023-07-29T07:54:55;20.10;;;19.00;;
3943;SDS011;1986;52.546;13.428;2023-07-29T07:57:28;20.27;;;19.17;;
3943;SDS011;1986;52.546;13.428;2023-07-29T07:59:55;19.23;;;18.23;;
3943;SDS011;1986;52.546;13.428;2023-07-29T08:02:22;21.63;;;20.30;;
3943;SDS011;1986;52.546;13.428;2023-07-29T08:04:51;22.33;;;20.73;;
3943;SDS011;1986;52.546;13.428;2023-07-29T08:07:18;19.43;;;18.50;;
3943;SDS011;1986;52.546;13.428;2023-07-29T08:09:48;21.87;;;20.47;;
3943;SDS011;1986;52.546;13.428;2023-07-29T08:12:15;21.23;;;20.13;;
3943;SDS011;1986;52.546;13.428;2023-07-29T08:14:48;20.47;;;19.47;;
3943;SDS011;1986;52.546;13.428;2023-07-29T08:17:16;20.90;;;19.60;;
3943;SDS011;1986;52.546;13.428;2023-07-29T08:19:43;19.10;;;18.20;;
3943;SDS011;1986;52.546;13.428;2023-07-29T08:22:10;20.00;;;18.90;;
3943;SDS011;1986;52.546;13.428;2023-07-29T08:24:37;21.83;;;20.63;;
3943;SDS011;1986;52.546;13.428;2023-07-29T08:27:05;22.43;;;21.03;;
3943;SDS011;1986;52.546;13.428;2023-07-29T08:29:32;19.77;;;18.67;;
3943;SDS011;1986;52.546;13.428;2023-07-29T08:32:03;21.90;;;20.60;;
3943;SDS011;1986;52.546;13.428;2023-07-29T08:34:35;22.23;;;20.83;;
3943;SDS011;1986;52.546;13.428;2023-07-29T08:37:05;22.60;;;20.90;;
3943;SDS011;1986;52.546;13.428;2023-07-29T08:39:32;21.70;;;20.20;;
3943;SDS011;1986;52.546;13.428;2023-07-29T08:42:00;21.80;;;20.60;;
3943;SDS011;1986;52.546;13.428;2023-07-29T08:44:35;21.70;;;20.33;;
3943;SDS011;1986;52.546;13.428;2023-07-29T08:47:08;23.27;;;21.87;;
3943;SDS011;1986;52.546;13.428;2023-07-29T08:49:35;22.20;;;20.87;;
3943;SDS011;1986;52.546;13.428;2023-07-29T08:52:04;21.30;;;20.10;;
3943;SDS011;1986;52.546;13.428;2023-07-29T08:54:31;21.10;;;20.00;;
3943;SDS011;1986;52.546;13.428;2023-07-29T08:57:00;21.70;;;20.50;;
3943;SDS011;1986;52.546;13.428;2023-07-29T08:59:28;22.00;;;20.80;;
3943;SDS011;1986;52.546;13.428;2023-07-29T09:01:59;22.50;;;21.03;;
3943;SDS011;1986;52.546;13.428;2023-07-29T09:04:46;21.57;;;20.37;;
3943;SDS011;1986;52.546;13.428;2023-07-29T09:07:13;23.77;;;22.10;;
3943;SDS011;1986;52.546;13.428;2023-07-29T09:09:41;22.00;;;20.80;;
3943;SDS011;1986;52.546;13.428;2023-07-29T09:12:09;21.07;;;19.90;;
3943;SDS011;1986;52.546;13.428;2023-07-29T09:14:38;21.57;;;20.27;;
3943;SDS011;1986;52.546;13.428;2023-07-29T09:17:06;21.97;;;20.57;;
3943;SDS011;1986;52.546;13.428;2023-07-29T09:19:34;22.00;;;20.70;;
3943;SDS011;1986;52.546;13.428;2023-07-29T09:22:03;25.90;;;23.67;;
3943;SDS011;1986;52.546;13.428;2023-07-29T09:24:30;23.77;;;22.20;;
3943;SDS011;1986;52.546;13.428;2023-07-29T09:26:59;21.47;;;20.27;;
3943;SDS011;1986;52.546;13.428;2023-07-29T09:29:27;22.83;;;21.30;;
3943;SDS011;1986;52.546;13.428;2023-07-29T09:31:59;23.43;;;22.03;;
3943;SDS011;1986;52.546;13.428;2023-07-29T09:34:45;21.23;;;19.90;;
3943;SDS011;1986;52.546;13.428;2023-07-29T09:37:18;20.33;;;19.20;;
3943;SDS011;1986;52.546;13.428;2023-07-29T09:39:48;20.27;;;19.07;;
3943;SDS011;1986;52.546;13.428;2023-07-29T09:42:17;20.77;;;19.50;;
3943;SDS011;1986;52.546;13.428;2023-07-29T09:44:45;21.90;;;20.50;;
3943;SDS011;1986;52.546;13.428;2023-07-29T09:47:21;22.50;;;21.00;;
3943;SDS011;1986;52.546;13.428;2023-07-29T09:49:49;20.67;;;19.47;;
3943;SDS011;1986;52.546;13.428;2023-07-29T09:52:23;20.90;;;19.70;;
3943;SDS011;1986;52.546;13.428;2023-07-29T09:54:52;20.43;;;19.33;;
3943;SDS011;1986;52.546;13.428;2023-07-29T09:57:19;23.43;;;22.03;;
3943;SDS011;1986;52.546;13.428;2023-07-29T09:59:53;23.97;;;21.80;;
3943;SDS011;1986;52.546;13.428;2023-07-29T10:02:23;20.73;;;19.50;;
3943;SDS011;1986;52.546;13.428;2023-07-29T10:04:53;21.63;;;20.33;;
3943;SDS011;1986;52.546;13.428;2023-07-29T10:07:23;21.30;;;20.00;;
3943;SDS011;1986;52.546;13.428;2023-07-29T10:09:51;20.70;;;19.50;;
3943;SDS011;1986;52.546;13.428;2023-07-29T10:12:18;21.63;;;20.43;;
3943;SDS011;1986;52.546;13.428;2023-07-29T10:14:46;22.97;;;21.27;;
3943;SDS011;1986;52.546;13.428;2023-07-29T10:17:14;21.67;;;20.47;;
3943;SDS011;1986;52.546;13.428;2023-07-29T10:19:42;23.67;;;22.20;;
3943;SDS011;1986;52.546;13.428;2023-07-29T10:22:10;21.70;;;20.40;;
3943;SDS011;1986;52.546;13.428;2023-07-29T10:24:41;21.33;;;20.13;;
3943;SDS011;1986;52.546;13.428;2023-07-29T10:27:10;21.37;;;20.17;;
3943;SDS011;1986;52.546;13.428;2023-07-29T10:29:40;21.30;;;20.00;;
3943;SDS011;1986;52.546;13.428;2023-07-29T10:32:12;20.60;;;19.40;;
3943;SDS011;1986;52.546;13.428;2023-07-29T10:34:39;21.17;;;19.77;;
3943;SDS011;1986;52.546;13.428;2023-07-29T10:37:08;21.30;;;20.00;;
3943;SDS011;1986;52.546;13.428;2023-07-29T10:39:38;21.77;;;20.47;;
3943;SDS011;1986;52.546;13.428;2023-07-29T10:42:07;24.20;;;22.10;;
3943;SDS011;1986;52.546;13.428;2023-07-29T10:44:47;22.80;;;20.73;;
3943;SDS011;1986;52.546;13.428;2023-07-29T10:47:20;21.33;;;20.10;;
3943;SDS011;1986;52.546;13.428;2023-07-29T10:49:50;22.23;;;20.93;;
3943;SDS011;1986;52.546;13.428;2023-07-29T10:52:29;22.30;;;21.00;;
3943;SDS011;1986;52.546;13.428;2023-07-29T10:55:16;22.40;;;20.90;;
3943;SDS011;1986;52.546;13.428;2023-07-29T10:57:52;21.80;;;20.50;;
3943;SDS011;1986;52.546;13.428;2023-07-29T11:00:31;22.20;;;20.90;;
3943;SDS011;1986;52.546;13.428;2023-07-29T11:02:59;22.00;;;20.70;;
3943;SDS011;1986;52.546;13.428;2023-07-29T11:05:41;23.10;;;21.50;;
3943;SDS011;1986;52.546;13.428;2023-07-29T11:08:17;22.30;;;21.00;;
3943;SDS011;1986;52.546;13.428;2023-07-29T11:10:58;22.50;;;21.10;;
3943;SDS011;1986;52.546;13.428;2023-07-29T11:13:36;22.00;;;20.70;;
3943;SDS011;1986;52.546;13.428;2023-07-29T11:16:04;24.20;;;22.60;;
3943;SDS011;1986;52.546;13.428;2023-07-29T11:18:32;22.27;;;20.87;;
3943;SDS011;1986;52.546;13.428;2023-07-29T11:21:00;22.27;;;20.90;;
3943;SDS011;1986;52.546;13.428;2023-07-29T11:23:37;16.97;;;16.17;;
3943;SDS011;1986;52.546;13.428;2023-07-29T11:26:04;16.70;;;15.90;;
3943;SDS011;1986;52.546;13.428;2023-07-29T11:28:37;26.37;;;24.87;;
3943;SDS011;1986;52.546;13.428;2023-07-29T11:31:06;23.13;;;21.50;;
3943;SDS011;1986;52.546;13.428;2023-07-29T11:33:33;18.10;;;17.40;;
3943;SDS011;1986;52.546;13.428;2023-07-29T11:36:00;19.10;;;18.30;;
3943;SDS011;1986;52.546;13.428;2023-07-29T11:38:28;17.90;;;17.20;;
3943;SDS011;1986;52.546;13.428;2023-07-29T11:40:58;17.67;;;16.97;;
3943;SDS011;1986;52.546;13.428;2023-07-29T11:43:29;19.13;;;18.33;;
3943;SDS011;1986;52.546;13.428;2023-07-29T11:46:02;18.90;;;18.10;;
3943;SDS011;1986;52.546;13.428;2023-07-29T11:48:31;14.70;;;14.20;;
3943;SDS011;1986;52.546;13.428;2023-07-29T11:51:01;12.30;;;12.00;;
3943;SDS011;1986;52.546;13.428;2023-07-29T11:53:30;11.10;;;10.80;;
3943;SDS011;1986;52.546;13.428;2023-07-29T11:55:58;8.97;;;8.77;;
3943;SDS011;1986;52.546;13.428;2023-07-29T11:58:43;6.50;;;6.40;;
3943;SDS011;1986;52.546;13.428;2023-07-29T12:01:12;5.67;;;5.57;;
3943;SDS011;1986;52.546;13.428;2023-07-29T12:03:40;11.70;;;11.40;;
3943;SDS011;1986;52.546;13.428;2023-07-29T12:06:09;12.03;;;11.73;;
3943;SDS011;1986;52.546;13.428;2023-07-29T12:08:37;11.80;;;11.50;;
3943;SDS011;1986;52.546;13.428;2023-07-29T12:11:07;9.80;;;9.60;;
3943;SDS011;1986;52.546;13.428;2023-07-29T12:13:36;8.90;;;8.70;;
3943;SDS011;1986;52.546;13.428;2023-07-29T12:16:03;7.80;;;7.70;;
3943;SDS011;1986;52.546;13.428;2023-07-29T12:18:34;6.30;;;6.20;;
3943;SDS011;1986;52.546;13.428;2023-07-29T12:21:02;5.60;;;5.50;;
3943;SDS011;1986;52.546;13.428;2023-07-29T12:23:29;6.00;;;5.90;;
3943;SDS011;1986;52.546;13.428;2023-07-29T12:25:57;6.20;;;6.10;;
3943;SDS011;1986;52.546;13.428;2023-07-29T12:28:44;6.00;;;5.90;;
3943;SDS011;1986;52.546;13.428;2023-07-29T12:31:14;6.00;;;5.90;;
3943;SDS011;1986;52.546;13.428;2023-07-29T12:36:41;4.70;;;4.60;;
3943;SDS011;1986;52.546;13.428;2023-07-29T12:39:16;3.30;;;3.30;;
3943;SDS011;1986;52.546;13.428;2023-07-29T12:41:58;3.30;;;3.30;;
3943;SDS011;1986;52.546;13.428;2023-07-29T12:44:38;4.17;;;4.07;;
3943;SDS011;1986;52.546;13.428;2023-07-29T12:47:06;5.50;;;5.20;;
3943;SDS011;1986;52.546;13.428;2023-07-29T12:49:38;6.50;;;5.03;;
3943;SDS011;1986;52.546;13.428;2023-07-29T12:52:05;5.40;;;5.30;;
3943;SDS011;1986;52.546;13.428;2023-07-29T12:54:32;7.30;;;7.20;;
3943;SDS011;1986;52.546;13.428;2023-07-29T12:57:03;7.77;;;7.67;;
3943;SDS011;1986;52.546;13.428;2023-07-29T12:59:30;9.47;;;9.27;;
3943;SDS011;1986;52.546;13.428;2023-07-29T13:01:57;11.87;;;11.47;;
3943;SDS011;1986;52.546;13.428;2023-07-29T13:04:25;12.70;;;12.30;;
3943;SDS011;1986;52.546;13.428;2023-07-29T13:06:54;13.13;;;12.73;;
3943;SDS011;1986;52.546;13.428;2023-07-29T13:09:24;14.40;;;13.90;;
3943;SDS011;1986;52.546;13.428;2023-07-29T13:11:53;15.67;;;14.20;;
3943;SDS011;1986;52.546;13.428;2023-07-29T13:14:20;16.00;;;15.23;;
3943;SDS011;1986;52.546;13.428;2023-07-29T13:16:47;16.50;;;15.60;;
3943;SDS011;1986;52.546;13.428;2023-07-29T13:19:14;15.77;;;15.03;;
3943;SDS011;1986;52.546;13.428;2023-07-29T13:21:41;16.43;;;15.63;;
3943;SDS011;1986;52.546;13.428;2023-07-29T13:24:10;16.50;;;15.40;;
3943;SDS011;1986;52.546;13.428;2023-07-29T13:26:37;16.03;;;15.03;;
3943;SDS011;1986;52.546;13.428;2023-07-29T13:29:05;14.87;;;14.27;;
3943;SDS011;1986;52.546;13.428;2023-07-29T13:31:34;15.37;;;14.67;;
3943;SDS011;1986;52.546;13.428;2023-07-29T13:34:04;16.70;;;15.90;;
3943;SDS011;1986;52.546;13.428;2023-07-29T13:36:31;14.90;;;14.30;;
3943;SDS011;1986;52.546;13.428;2023-07-29T13:39:05;17.50;;;16.60;;
3943;SDS011;1986;52.546;13.428;2023-07-29T13:41:38;17.57;;;16.77;;
3943;SDS011;1986;52.546;13.428;2023-07-29T13:44:07;16.20;;;15.50;;
3943;SDS011;1986;52.546;13.428;2023-07-29T13:46:35;17.10;;;16.30;;
3943;SDS011;1986;52.546;13.428;2023-07-29T13:49:04;19.37;;;18.37;;
3943;SDS011;1986;52.546;13.428;2023-07-29T13:51:32;18.70;;;17.80;;
3943;SDS011;1986;52.546;13.428;2023-07-29T13:53:59;20.80;;;19.60;;
3943;SDS011;1986;52.546;13.428;2023-07-29T13:56:27;19.70;;;18.60;;
3943;SDS011;1986;52.546;13.428;2023-07-29T13:58:55;19.67;;;18.67;;
3943;SDS011;1986;52.546;13.428;2023-07-29T14:01:22;20.33;;;19.13;;
3943;SDS011;1986;52.546;13.428;2023-07-29T14:03:49;20.13;;;19.00;;
3943;SDS011;1986;52.546;13.428;2023-07-29T14:06:16;20.00;;;18.90;;
3943;SDS011;1986;52.546;13.428;2023-07-29T14:08:43;20.10;;;19.00;;
3943;SDS011;1986;52.546;13.428;2023-07-29T14:11:10;20.70;;;19.50;;
3943;SDS011;1986;52.546;13.428;2023-07-29T14:13:38;19.90;;;18.70;;
3943;SDS011;1986;52.546;13.428;2023-07-29T14:16:09;20.97;;;19.77;;
3943;SDS011;1986;52.546;13.428;2023-07-29T14:18:36;20.60;;;19.50;;
3943;SDS011;1986;52.546;13.428;2023-07-29T14:21:03;19.70;;;18.70;;
3943;SDS011;1986;52.546;13.428;2023-07-29T14:23:29;20.50;;;19.30;;
3943;SDS011;1986;52.546;13.428;2023-07-29T14:25:57;20.40;;;19.20;;
3943;SDS011;1986;52.546;13.428;2023-07-29T14:28:25;20.33;;;19.13;;
3943;SDS011;1986;52.546;13.428;2023-07-29T14:30:52;19.50;;;18.50;;
3943;SDS011;1986;52.546;13.428;2023-07-29T14:33:24;20.40;;;19.20;;
3943;SDS011;1986;52.546;13.428;2023-07-29T14:35:53;20.93;;;19.83;;
3943;SDS011;1986;52.546;13.428;2023-07-29T14:38:20;20.90;;;19.80;;
3943;SDS011;1986;52.546;13.428;2023-07-29T14:40:51;19.83;;;18.83;;
3943;SDS011;1986;52.546;13.428;2023-07-29T14:43:19;23.20;;;19.47;;
3943;SDS011;1986;52.546;13.428;2023-07-29T14:45:50;20.97;;;19.83;;
3943;SDS011;1986;52.546;13.428;2023-07-29T14:48:17;20.83;;;19.73;;
3943;SDS011;1986;52.546;13.428;2023-07-29T14:50:45;20.63;;;19.53;;
3943;SDS011;1986;52.546;13.428;2023-07-29T14:53:13;21.60;;;20.40;;
3943;SDS011;1986;52.546;13.428;2023-07-29T14:56:09;21.30;;;20.17;;
3943;SDS011;1986;52.546;13.428;2023-07-29T14:58:36;20.90;;;19.80;;